Time;durP1;ratioP1;P1;durP2;ratioP2;P2;SDS_P1;SDS_P2;PMS_P1;PMS_P2;Temp;Humidity;BMP_temperature;BMP_pressure;BME280_temperature;BME280_humidity;BME280_pressure;Samples;Min_cycle;Max_cycle;Signal;HPM_P1;HPM_P2
2022/03/07 00:00:49;;;;;;;10.67;8.37;;;;;;;-0.97;62.64;94831.56;5045347;28;20191;-62
2022/03/07 00:03:35;;;;;;;10.30;8.27;;;;;;;-0.92;61.98;94828.50;5042783;28;20610;-62
2022/03/07 00:06:21;;;;;;;12.27;8.90;;;;;;;-1.06;62.48;94831.19;5044667;28;20264;-62
2022/03/07 00:09:07;;;;;;;13.10;9.37;;;;;;;-1.00;62.80;94826.22;5048112;28;20191;-63
2022/03/07 00:11:53;;;;;;;14.00;9.40;;;;;;;-0.94;62.26;94830.78;5037886;28;20581;-69
2022/03/07 00:14:39;;;;;;;11.00;8.33;;;;;;;-0.96;63.07;94832.31;5039940;28;20694;-68
2022/03/07 00:17:25;;;;;;;10.27;8.70;;;;;;;-1.04;62.62;94828.88;5033564;28;20509;-68
2022/03/07 00:20:12;;;;;;;13.37;9.57;;;;;;;-1.11;62.99;94825.44;5058401;28;20195;-64
2022/03/07 00:22:58;;;;;;;11.00;8.57;;;;;;;-1.11;62.61;94828.91;5045744;28;20214;-64
2022/03/07 00:25:44;;;;;;;13.80;9.40;;;;;;;-1.24;63.57;94827.75;5033528;28;20197;-64
2022/03/07 00:28:30;;;;;;;12.07;8.80;;;;;;;-1.13;63.23;94831.19;5033392;28;20206;-64
2022/03/07 00:31:19;;;;;;;10.77;8.57;;;;;;;-1.20;63.11;94820.47;5029048;28;20199;-62
2022/03/07 00:34:05;;;;;;;15.13;8.73;;;;;;;-1.16;63.33;94831.19;5041980;28;20591;-67
2022/03/07 00:36:51;;;;;;;14.17;9.30;;;;;;;-1.11;63.62;94833.47;5034673;28;20194;-68
2022/03/07 00:39:36;;;;;;;12.70;9.23;;;;;;;-1.03;64.46;94838.44;5029383;28;20195;-68
2022/03/07 00:42:22;;;;;;;10.30;8.77;;;;;;;-1.21;63.84;94835.03;5033593;28;20229;-63
2022/03/07 00:45:10;;;;;;;13.27;9.33;;;;;;;-1.24;64.20;94839.22;5032221;28;20194;-64
2022/03/07 00:47:56;;;;;;;12.37;9.10;;;;;;;-1.23;64.49;94842.69;5034718;28;20281;-67
2022/03/07 00:50:47;;;;;;;12.53;8.93;;;;;;;-1.14;64.54;94832.34;5041614;28;20202;-67
2022/03/07 00:53:36;;;;;;;11.33;9.50;;;;;;;-1.04;64.17;94836.16;5024093;28;20205;-68
2022/03/07 00:56:22;;;;;;;10.17;9.00;;;;;;;-1.16;63.91;94828.50;5051720;28;20780;-67
2022/03/07 00:59:09;;;;;;;13.33;9.57;;;;;;;-1.13;64.10;94822.38;5033528;28;20198;-67
2022/03/07 01:01:55;;;;;;;13.07;9.33;;;;;;;-1.15;64.02;94819.34;5028198;28;20624;-67
2022/03/07 01:04:41;;;;;;;11.60;8.80;;;;;;;-1.15;63.92;94822.75;5034379;28;20280;-67
2022/03/07 01:07:27;;;;;;;10.67;8.83;;;;;;;-1.18;65.08;94815.50;5051634;28;20213;-62
2022/03/07 01:10:13;;;;;;;13.10;8.80;;;;;;;-1.25;64.79;94826.22;5031398;28;20195;-68
2022/03/07 01:12:59;;;;;;;11.17;9.33;;;;;;;-1.22;64.97;94820.84;5027676;28;20222;-68
2022/03/07 01:15:46;;;;;;;12.00;9.10;;;;;;;-1.23;64.81;94824.69;5032038;28;20203;-68
2022/03/07 01:18:32;;;;;;;11.27;8.83;;;;;;;-1.22;65.10;94825.44;5035948;28;20202;-68
2022/03/07 01:21:18;;;;;;;12.10;9.47;;;;;;;-1.03;65.41;94825.06;5033138;28;20206;-67
2022/03/07 01:24:04;;;;;;;9.87;8.47;;;;;;;-1.09;64.16;94818.56;5034494;28;20210;-67
2022/03/07 01:26:50;;;;;;;9.97;8.87;;;;;;;-1.26;65.13;94812.03;5049882;28;20190;-67
2022/03/07 01:29:36;;;;;;;12.17;9.07;;;;;;;-1.29;65.19;94812.81;5050088;28;20194;-67
2022/03/07 01:32:22;;;;;;;11.60;8.87;;;;;;;-1.22;64.75;94818.19;5042529;28;20206;-66
2022/03/07 01:35:08;;;;;;;12.17;8.90;;;;;;;-1.27;65.45;94813.22;5032988;28;20308;-67
2022/03/07 01:37:54;;;;;;;12.33;9.07;;;;;;;-1.47;66.19;94822.00;5032018;28;20191;-67
2022/03/07 01:40:42;;;;;;;10.47;8.80;;;;;;;-1.52;65.89;94820.47;5047127;28;20194;-68
2022/03/07 01:43:27;;;;;;;13.40;9.50;;;;;;;-1.45;66.56;94817.03;5014187;28;20225;-68
2022/03/07 01:46:13;;;;;;;13.17;8.43;;;;;;;-1.34;66.56;94813.22;5048904;28;20222;-68
2022/03/07 01:48:59;;;;;;;10.57;8.63;;;;;;;-1.44;67.00;94813.97;5033146;28;20278;-68
2022/03/07 01:51:46;;;;;;;12.37;8.83;;;;;;;-1.51;67.56;94810.53;5042052;28;20696;-68
2022/03/07 01:54:33;;;;;;;11.23;9.13;;;;;;;-1.43;67.80;94806.72;5032943;28;20241;-66
2022/03/07 01:57:19;;;;;;;10.97;9.57;;;;;;;-1.48;68.30;94807.09;5031946;28;20198;-67
2022/03/07 02:00:09;;;;;;;12.30;9.40;;;;;;;-1.48;68.69;94807.84;5020821;28;20240;-62
2022/03/07 02:02:58;;;;;;;15.10;9.80;;;;;;;-1.45;68.82;94807.09;5045091;28;20214;-62
2022/03/07 02:05:51;;;;;;;10.57;8.93;;;;;;;-1.45;69.60;94807.09;5015008;28;20681;-68
2022/03/07 02:08:43;;;;;;;14.77;9.20;;;;;;;-1.47;70.07;94808.63;5037449;28;20198;-62
2022/03/07 02:11:35;;;;;;;11.73;9.23;;;;;;;-1.54;70.79;94801.34;5016953;28;20206;-64
2022/03/07 02:14:23;;;;;;;13.27;9.57;;;;;;;-1.65;71.94;94803.28;5027999;28;20241;-63
2022/03/07 02:17:13;;;;;;;15.23;9.13;;;;;;;-1.68;72.47;94795.22;5017813;28;20207;-64
2022/03/07 02:19:59;;;;;;;12.73;9.93;;;;;;;-1.71;73.32;94795.97;5017334;28;20209;-64
2022/03/07 02:22:46;;;;;;;12.50;9.27;;;;;;;-1.60;74.01;94794.84;5016754;28;20219;-68
2022/03/07 02:25:32;;;;;;;13.53;10.63;;;;;;;-1.63;74.35;94787.56;5035790;28;20575;-68
2022/03/07 02:28:18;;;;;;;12.93;10.07;;;;;;;-1.87;75.64;94791.00;5034369;28;20210;-68
2022/03/07 02:31:05;;;;;;;12.77;10.13;;;;;;;-1.87;76.78;94792.91;5028666;28;20658;-68
2022/03/07 02:33:51;;;;;;;13.30;9.97;;;;;;;-1.86;77.27;94794.44;5022395;28;20237;-62
2022/03/07 02:36:39;;;;;;;14.00;11.30;;;;;;;-1.92;78.09;94785.25;5038430;28;20289;-63
2022/03/07 02:39:25;;;;;;;14.47;10.47;;;;;;;-1.87;78.79;94787.56;5037747;28;20280;-63
2022/03/07 02:42:12;;;;;;;14.03;11.53;;;;;;;-1.90;80.43;94785.66;5031921;28;20759;-63
2022/03/07 02:44:59;;;;;;;15.23;11.07;;;;;;;-2.06;81.79;94790.59;5026507;28;21092;-68
2022/03/07 02:47:45;;;;;;;16.87;11.80;;;;;;;-2.02;82.31;94794.78;5035886;28;20274;-68
2022/03/07 02:50:32;;;;;;;14.53;10.90;;;;;;;-2.06;83.43;94791.34;5036527;28;20206;-68
2022/03/07 02:53:18;;;;;;;13.50;10.90;;;;;;;-1.87;83.62;94803.63;5054990;28;20250;-68
2022/03/07 02:56:04;;;;;;;17.07;11.23;;;;;;;-1.86;83.72;94789.09;5033456;28;20628;-68
2022/03/07 02:58:50;;;;;;;13.97;11.03;;;;;;;-1.92;84.40;94804.00;5050490;28;20201;-61
2022/03/07 03:01:36;;;;;;;15.47;11.40;;;;;;;-1.93;84.75;94795.19;5047189;28;20671;-62
2022/03/07 03:04:22;;;;;;;16.77;12.53;;;;;;;-1.93;85.49;94797.09;5041908;28;20213;-62
2022/03/07 03:07:08;;;;;;;16.20;12.10;;;;;;;-2.01;86.61;94795.56;5055066;28;20767;-62
2022/03/07 03:09:55;;;;;;;15.00;10.27;;;;;;;-1.97;86.73;94799.00;5035064;28;20202;-62
2022/03/07 03:12:41;;;;;;;17.37;12.03;;;;;;;-2.00;87.25;94802.47;5035953;28;20233;-61
2022/03/07 03:15:27;;;;;;;15.93;12.57;;;;;;;-2.08;87.94;94803.56;5049180;28;20218;-64
2022/03/07 03:18:13;;;;;;;17.80;12.50;;;;;;;-2.10;89.14;94819.22;5043174;28;20569;-66
2022/03/07 03:20:59;;;;;;;15.53;12.50;;;;;;;-2.15;90.11;94812.34;5046054;28;20617;-67
2022/03/07 03:23:46;;;;;;;16.70;12.17;;;;;;;-2.15;90.83;94819.59;5053662;28;20222;-67
2022/03/07 03:26:32;;;;;;;17.33;13.23;;;;;;;-2.16;91.38;94815.41;5048402;28;20198;-67
2022/03/07 03:29:17;;;;;;;19.17;13.67;;;;;;;-2.17;92.08;94817.28;5059020;28;20211;-67
2022/03/07 03:32:04;;;;;;;17.77;13.90;;;;;;;-2.17;92.00;94819.22;5030488;28;20657;-66
2022/03/07 03:34:49;;;;;;;18.83;14.50;;;;;;;-2.10;91.96;94817.31;5035900;28;20233;-67
2022/03/07 03:37:36;;;;;;;19.00;13.80;;;;;;;-2.13;91.62;94803.94;5028071;28;20208;-66
2022/03/07 03:40:22;;;;;;;18.77;15.10;;;;;;;-2.01;91.18;94815.06;5061356;28;20202;-66
2022/03/07 03:43:08;;;;;;;18.67;15.03;;;;;;;-2.02;91.70;94818.13;5051860;28;20232;-67
2022/03/07 03:45:54;;;;;;;17.40;13.47;;;;;;;-2.06;91.32;94817.34;5044842;28;20191;-67
2022/03/07 03:48:40;;;;;;;17.07;14.53;;;;;;;-2.09;92.44;94823.44;5042639;28;20629;-64
2022/03/07 03:51:26;;;;;;;19.00;14.03;;;;;;;-2.11;92.27;94820.38;5035882;28;20213;-64
2022/03/07 03:54:12;;;;;;;18.73;13.37;;;;;;;-2.25;92.61;94818.44;5059502;28;20691;-64
2022/03/07 03:56:58;;;;;;;19.00;14.90;;;;;;;-2.21;92.55;94807.75;5054431;28;20212;-64
2022/03/07 03:59:43;;;;;;;19.63;14.70;;;;;;;-2.21;93.40;94815.75;5049740;28;20201;-64
2022/03/07 04:02:29;;;;;;;18.90;14.63;;;;;;;-2.13;93.11;94825.34;5052757;28;20237;-63
2022/03/07 04:05:16;;;;;;;20.23;14.53;;;;;;;-2.13;92.13;94823.44;5028510;28;20199;-63
2022/03/07 04:08:02;;;;;;;18.93;15.07;;;;;;;-2.06;92.88;94818.09;5034739;28;20256;-67
2022/03/07 04:10:48;;;;;;;18.17;13.10;;;;;;;-2.15;91.91;94841.00;5043883;28;20197;-66
2022/03/07 04:13:34;;;;;;;17.17;13.03;;;;;;;-2.14;92.64;94829.94;5038973;28;20284;-61
2022/03/07 04:16:20;;;;;;;18.00;13.10;;;;;;;-2.15;91.58;94831.06;5032418;28;20666;-61
2022/03/07 04:19:08;;;;;;;17.07;13.50;;;;;;;-2.17;91.56;94838.69;5058032;28;20934;-61
2022/03/07 04:21:54;;;;;;;19.07;13.97;;;;;;;-2.27;92.38;94830.66;5041710;28;20194;-68
2022/03/07 04:24:40;;;;;;;19.13;13.97;;;;;;;-2.31;92.21;94827.97;5042809;28;20194;-68
2022/03/07 04:27:25;;;;;;;20.10;12.90;;;;;;;-2.17;92.00;94827.25;5043393;28;20241;-68
2022/03/07 04:30:11;;;;;;;16.13;12.87;;;;;;;-2.20;91.28;94822.63;5043798;28;20225;-68
2022/03/07 04:32:57;;;;;;;16.83;13.40;;;;;;;-2.23;90.76;94823.41;5032315;28;20301;-68
2022/03/07 04:35:43;;;;;;;16.17;12.67;;;;;;;-2.35;91.26;94823.72;5033039;28;20222;-67
2022/03/07 04:38:29;;;;;;;16.70;13.30;;;;;;;-2.22;91.27;94814.25;5055786;28;20252;-66
2022/03/07 04:41:15;;;;;;;17.13;13.50;;;;;;;-2.17;89.90;94821.91;5050297;28;20604;-68
2022/03/07 04:44:02;;;;;;;15.77;11.60;;;;;;;-2.12;90.06;94818.84;5038367;28;20840;-68
2022/03/07 04:46:47;;;;;;;14.70;12.07;;;;;;;-2.27;90.35;94814.63;5036977;28;20670;-62
2022/03/07 04:49:33;;;;;;;19.50;12.47;;;;;;;-2.37;90.33;94818.00;5064144;28;20374;-68
2022/03/07 04:52:19;;;;;;;16.93;12.93;;;;;;;-2.35;91.20;94821.06;5037062;28;20265;-69
2022/03/07 04:55:06;;;;;;;18.87;12.30;;;;;;;-2.38;90.34;94822.59;5036100;28;20222;-68
2022/03/07 04:57:52;;;;;;;14.83;11.90;;;;;;;-2.46;90.77;94824.47;5050211;28;20194;-68
2022/03/07 05:00:38;;;;;;;16.70;11.63;;;;;;;-2.48;91.27;94823.31;5065825;28;20194;-68
2022/03/07 05:03:24;;;;;;;18.67;12.63;;;;;;;-2.42;91.21;94827.16;5034867;28;20228;-68
2022/03/07 05:06:10;;;;;;;14.03;11.63;;;;;;;-2.35;90.92;94829.84;5035947;28;20195;-68
2022/03/07 05:08:56;;;;;;;17.50;12.13;;;;;;;-2.44;91.18;94828.69;5045692;28;20205;-68
2022/03/07 05:11:42;;;;;;;15.93;12.73;;;;;;;-2.38;90.36;94825.25;5052717;28;20195;-62
2022/03/07 05:14:28;;;;;;;20.73;12.40;;;;;;;-2.30;89.75;94818.03;5040350;28;20230;-62
2022/03/07 05:17:14;;;;;;;16.47;12.30;;;;;;;-2.34;89.84;94823.34;5042288;28;20649;-62
2022/03/07 05:20:00;;;;;;;15.77;11.97;;;;;;;-2.24;90.41;94814.59;5051346;28;20206;-62
2022/03/07 05:22:46;;;;;;;14.27;11.60;;;;;;;-2.43;89.12;94816.84;5026984;28;20683;-61
2022/03/07 05:25:32;;;;;;;15.57;12.77;;;;;;;-2.46;89.99;94821.00;5046090;28;20580;-61
2022/03/07 05:28:18;;;;;;;16.13;12.00;;;;;;;-2.57;90.15;94818.31;5042237;28;20197;-68
2022/03/07 05:31:04;;;;;;;16.03;11.40;;;;;;;-2.50;91.13;94828.28;5041585;28;20228;-68
2022/03/07 05:33:50;;;;;;;17.30;12.57;;;;;;;-2.46;90.09;94831.72;5043448;28;20771;-61
2022/03/07 05:36:36;;;;;;;16.57;11.43;;;;;;;-2.51;89.22;94821.38;5044609;28;20604;-62
2022/03/07 05:39:22;;;;;;;16.90;11.67;;;;;;;-2.51;89.92;94822.16;5047758;28;20205;-66
2022/03/07 05:42:08;;;;;;;15.17;11.00;;;;;;;-2.58;89.02;94829.38;5043750;28;20194;-60
2022/03/07 05:44:53;;;;;;;16.83;11.37;;;;;;;-2.62;89.91;94824.03;5032787;28;20603;-61
2022/03/07 05:47:41;;;;;;;15.27;11.77;;;;;;;-2.63;89.78;94833.16;5046147;28;20194;-61
2022/03/07 05:50:27;;;;;;;13.03;10.30;;;;;;;-2.60;89.64;94834.34;5048456;28;20578;-61
2022/03/07 05:53:13;;;;;;;15.83;11.70;;;;;;;-2.64;89.60;94839.66;5032457;28;20248;-61
2022/03/07 05:55:59;;;;;;;13.50;10.97;;;;;;;-2.62;89.25;94834.72;5045826;28;20289;-62
2022/03/07 05:58:46;;;;;;;16.13;12.27;;;;;;;-2.57;89.33;94836.25;5037932;28;20187;-68
2022/03/07 06:01:32;;;;;;;12.00;10.50;;;;;;;-2.71;89.53;94839.63;5043661;28;20194;-68
2022/03/07 06:04:18;;;;;;;13.77;11.57;;;;;;;-2.61;88.78;94838.91;5037724;28;20670;-68
2022/03/07 06:07:04;;;;;;;11.30;9.20;;;;;;;-2.60;88.64;94832.41;5049899;28;20259;-68
2022/03/07 06:09:52;;;;;;;12.33;10.80;;;;;;;-2.61;88.62;94846.16;5033541;28;20210;-67
2022/03/07 06:12:38;;;;;;;12.47;10.40;;;;;;;-2.71;88.74;94833.50;5046846;28;20218;-69
2022/03/07 06:15:24;;;;;;;12.83;10.27;;;;;;;-2.78;88.70;94831.56;5011437;28;20813;-63
2022/03/07 06:18:11;;;;;;;19.27;11.87;;;;;;;-2.69;89.07;94839.25;5046235;28;20211;-65
2022/03/07 06:20:57;;;;;;;15.67;11.10;;;;;;;-2.72;88.42;94835.44;5053872;28;20647;-62
2022/03/07 06:23:43;;;;;;;18.07;12.03;;;;;;;-2.65;88.23;94834.69;5035873;28;20222;-63
2022/03/07 06:26:29;;;;;;;18.30;12.17;;;;;;;-2.67;88.22;94837.75;5042842;28;20613;-63
2022/03/07 06:29:15;;;;;;;13.57;10.63;;;;;;;-2.70;88.53;94827.78;5048474;28;20194;-63
2022/03/07 06:32:01;;;;;;;14.93;11.23;;;;;;;-2.58;87.53;94843.50;5050037;28;20244;-63
2022/03/07 06:34:46;;;;;;;15.27;11.67;;;;;;;-2.50;87.11;94846.97;5050205;28;20769;-68
2022/03/07 06:37:32;;;;;;;13.93;10.83;;;;;;;-2.55;87.11;94828.63;5055022;28;20201;-68
2022/03/07 06:40:20;;;;;;;15.30;11.10;;;;;;;-2.40;86.03;94845.47;5034920;28;20685;-61
2022/03/07 06:43:06;;;;;;;16.43;11.27;;;;;;;-2.46;86.14;94855.75;5051564;28;20296;-61
2022/03/07 06:45:53;;;;;;;14.37;10.93;;;;;;;-2.46;86.43;94856.53;5020457;28;20201;-67
2022/03/07 06:48:39;;;;;;;15.97;11.63;;;;;;;-2.48;86.08;94856.16;5046812;28;20301;-66
2022/03/07 06:51:25;;;;;;;15.40;11.50;;;;;;;-2.25;85.67;94866.56;5037015;28;20301;-66
2022/03/07 06:54:11;;;;;;;15.80;11.50;;;;;;;-2.22;84.16;94871.16;5043766;28;20674;-66
2022/03/07 06:56:57;;;;;;;12.97;10.13;;;;;;;-2.27;83.52;94876.88;5036039;28;20255;-66
2022/03/07 06:59:43;;;;;;;13.43;11.30;;;;;;;-2.35;85.03;94875.31;5046908;28;20205;-63
2022/03/07 07:02:29;;;;;;;13.90;11.30;;;;;;;-2.24;84.38;94878.78;5036714;28;20229;-68
2022/03/07 07:05:16;;;;;;;15.63;11.33;;;;;;;-2.08;83.37;94873.13;5038151;28;20558;-68
2022/03/07 07:08:02;;;;;;;18.00;11.17;;;;;;;-2.04;82.56;94880.03;5054873;28;20578;-66
2022/03/07 07:10:48;;;;;;;14.03;11.03;;;;;;;-2.02;82.21;94882.31;5041109;28;20609;-61
2022/03/07 07:13:33;;;;;;;14.73;10.77;;;;;;;-1.87;82.10;94889.25;5049957;28;20659;-61
2022/03/07 07:16:20;;;;;;;14.10;10.73;;;;;;;-1.98;81.32;94889.22;5049089;28;20996;-60
2022/03/07 07:19:05;;;;;;;14.80;10.57;;;;;;;-2.02;80.83;94885.00;5043166;28;20195;-62
2022/03/07 07:21:51;;;;;;;16.67;11.07;;;;;;;-1.84;80.95;94880.47;5049350;28;20190;-63
2022/03/07 07:24:37;;;;;;;14.43;10.57;;;;;;;-1.74;79.80;94887.75;5045200;28;20214;-63
2022/03/07 07:27:23;;;;;;;13.43;11.13;;;;;;;-1.82;79.57;94878.19;5036153;28;20744;-66
2022/03/07 07:30:10;;;;;;;13.03;10.57;;;;;;;-1.70;79.44;94875.94;5050526;28;20194;-68
2022/03/07 07:32:56;;;;;;;16.97;11.27;;;;;;;-1.67;78.81;94872.47;5042621;28;20218;-68
2022/03/07 07:35:42;;;;;;;16.50;11.20;;;;;;;-1.50;77.78;94877.09;5042771;28;20237;-68
2022/03/07 07:38:28;;;;;;;15.53;11.20;;;;;;;-1.51;77.17;94877.50;5042379;28;20260;-68
2022/03/07 07:41:14;;;;;;;21.33;10.63;;;;;;;-1.24;76.77;94884.03;5046376;28;20236;-68
2022/03/07 07:44:00;;;;;;;15.97;11.37;;;;;;;-1.20;75.67;94884.78;5048090;28;20210;-67
2022/03/07 07:46:46;;;;;;;16.03;10.73;;;;;;;-1.40;75.33;94900.44;5042418;28;20617;-66
2022/03/07 07:49:31;;;;;;;14.73;11.17;;;;;;;-1.51;75.52;94898.91;5044890;28;20205;-63
2022/03/07 07:52:17;;;;;;;13.53;10.93;;;;;;;-1.53;75.79;94896.59;5049392;28;20558;-63
2022/03/07 07:55:07;;;;;;;13.40;10.40;;;;;;;-1.19;75.46;94890.91;5035348;28;20226;-61
2022/03/07 07:57:53;;;;;;;14.83;11.27;;;;;;;-1.06;74.18;94898.19;5046720;28;20317;-61
2022/03/07 08:00:39;;;;;;;13.60;10.13;;;;;;;-1.13;74.01;94908.88;5046110;28;20214;-63
2022/03/07 08:03:25;;;;;;;15.23;11.83;;;;;;;-1.08;72.84;94905.81;5039850;28;20289;-62
2022/03/07 08:06:11;;;;;;;16.10;10.67;;;;;;;-1.18;72.89;94909.28;5038860;28;20201;-63
2022/03/07 08:08:57;;;;;;;15.67;11.97;;;;;;;-0.78;72.38;94911.56;5037788;28;20206;-62
2022/03/07 08:11:43;;;;;;;12.90;10.87;;;;;;;-0.55;70.45;94917.28;5041990;28;20194;-66
2022/03/07 08:14:28;;;;;;;13.33;10.80;;;;;;;-0.36;69.78;94922.25;5046074;28;20222;-66
2022/03/07 08:17:15;;;;;;;14.30;10.53;;;;;;;-0.46;68.89;94922.25;5043588;28;20204;-68
2022/03/07 08:20:01;;;;;;;13.07;10.70;;;;;;;-0.60;69.13;94920.38;5042064;28;20205;-66
2022/03/07 08:22:47;;;;;;;13.43;10.90;;;;;;;-0.86;69.45;94914.63;5046874;28;20221;-67
2022/03/07 08:25:33;;;;;;;15.57;10.67;;;;;;;-0.78;69.35;94919.59;5047898;28;20593;-67
2022/03/07 08:28:19;;;;;;;17.73;11.07;;;;;;;-0.54;69.01;94936.81;5041022;28;20279;-68
2022/03/07 08:31:05;;;;;;;15.20;10.43;;;;;;;-0.96;68.52;94934.16;5032772;28;20202;-68
2022/03/07 08:33:51;;;;;;;19.03;11.77;;;;;;;-1.06;69.69;94941.06;5046434;28;20213;-61
2022/03/07 08:36:37;;;;;;;21.33;11.43;;;;;;;-0.60;68.85;94931.09;5038631;28;20225;-61
2022/03/07 08:39:23;;;;;;;14.33;10.27;;;;;;;-0.67;68.46;94927.66;5042762;28;20206;-63
2022/03/07 08:42:09;;;;;;;17.80;11.63;;;;;;;-0.50;68.45;94927.63;5047964;28;20201;-63
2022/03/07 08:44:55;;;;;;;14.57;10.77;;;;;;;-0.21;66.22;94931.78;5043873;28;20317;-61
2022/03/07 08:47:41;;;;;;;14.33;11.30;;;;;;;-0.26;65.77;94942.91;5039795;28;20186;-62
2022/03/07 08:50:27;;;;;;;17.30;11.33;;;;;;;-0.52;66.18;94937.97;5034079;28;20202;-63
2022/03/07 08:53:13;;;;;;;13.80;10.23;;;;;;;-0.65;66.88;94936.06;5041781;28;20219;-62
2022/03/07 08:55:59;;;;;;;15.50;12.50;;;;;;;-0.56;67.17;94942.56;5045905;28;20231;-68
2022/03/07 08:58:45;;;;;;;13.90;11.23;;;;;;;-0.40;66.21;94937.56;5034349;28;20201;-69
2022/03/07 09:01:31;;;;;;;13.90;11.17;;;;;;;-0.38;65.38;94953.28;5045554;28;20217;-61
2022/03/07 09:04:17;;;;;;;18.33;11.10;;;;;;;-0.27;65.61;94951.34;5037264;28;20237;-68
2022/03/07 09:07:03;;;;;;;15.47;11.63;;;;;;;-0.16;64.91;94944.03;5051261;28;20547;-69
2022/03/07 09:09:49;;;;;;;18.40;13.50;;;;;;;-0.21;65.59;94964.00;5035503;28;20187;-69
2022/03/07 09:12:36;;;;;;;17.20;12.67;;;;;;;0.24;63.40;94948.16;5043713;28;20666;-67
2022/03/07 09:15:22;;;;;;;17.27;12.33;;;;;;;0.21;63.45;94947.00;5034533;28;20233;-68
2022/03/07 09:18:07;;;;;;;14.00;11.60;;;;;;;0.25;63.50;94950.44;5057915;28;20201;-68
2022/03/07 09:20:54;;;;;;;17.37;11.07;;;;;;;0.17;63.11;94948.91;5036729;28;20579;-63
2022/03/07 09:23:40;;;;;;;15.93;10.60;;;;;;;0.21;63.04;94948.91;5038419;28;20233;-63
2022/03/07 09:26:27;;;;;;;15.73;12.03;;;;;;;0.25;63.18;94946.97;5046691;28;20218;-63
2022/03/07 09:29:12;;;;;;;14.47;11.67;;;;;;;0.69;62.06;94949.84;5045605;28;20194;-61
2022/03/07 09:31:59;;;;;;;14.33;11.30;;;;;;;0.09;62.67;94955.47;5027800;28;20293;-61
2022/03/07 09:34:45;;;;;;;15.83;11.87;;;;;;;0.17;63.51;94959.66;5045989;28;20590;-61
2022/03/07 09:37:31;;;;;;;18.10;11.63;;;;;;;0.13;62.47;94966.19;5041916;28;20253;-61
2022/03/07 09:40:17;;;;;;;14.77;11.57;;;;;;;0.22;62.66;94961.19;5030112;28;20199;-68
2022/03/07 09:43:03;;;;;;;17.43;11.50;;;;;;;0.23;62.13;94968.06;5045195;28;20780;-67
2022/03/07 09:45:49;;;;;;;14.93;11.53;;;;;;;0.31;61.99;94964.97;5047991;28;20335;-68
2022/03/07 09:48:35;;;;;;;14.80;11.47;;;;;;;0.49;61.37;94970.28;5043114;28;20237;-68
2022/03/07 09:51:21;;;;;;;15.73;12.13;;;;;;;0.96;59.93;94967.72;5039010;28;20242;-69
2022/03/07 09:54:07;;;;;;;16.03;12.33;;;;;;;1.09;59.74;94971.47;5040398;28;20222;-67
2022/03/07 09:56:55;;;;;;;13.83;11.27;;;;;;;1.61;58.29;94972.25;5030707;28;20206;-67
2022/03/07 09:59:41;;;;;;;14.93;11.70;;;;;;;1.27;58.21;94971.38;5045847;28;20201;-61
2022/03/07 10:02:28;;;;;;;25.43;12.30;;;;;;;1.66;57.44;94971.03;5032380;28;20198;-69
2022/03/07 10:05:14;;;;;;;14.23;11.30;;;;;;;1.35;56.99;94983.59;5032480;28;20195;-61
2022/03/07 10:08:00;;;;;;;14.33;11.17;;;;;;;1.21;57.60;94986.38;5053353;28;20225;-60
2022/03/07 10:10:46;;;;;;;14.53;12.03;;;;;;;1.67;56.14;94989.47;5040420;28;20190;-66
2022/03/07 10:13:33;;;;;;;15.87;11.17;;;;;;;1.63;56.33;94983.34;5033034;28;20277;-67
2022/03/07 10:16:20;;;;;;;18.37;12.27;;;;;;;1.10;56.82;94977.63;5043084;28;20985;-68
2022/03/07 10:19:14;;;;;;;16.20;11.97;;;;;;;1.64;55.96;94984.13;5057535;28;20201;-63
2022/03/07 10:22:00;;;;;;;14.23;11.83;;;;;;;1.30;55.29;94989.41;5035711;28;20206;-62
2022/03/07 10:24:47;;;;;;;16.03;11.97;;;;;;;1.15;55.43;94996.03;5041385;28;20194;-61
2022/03/07 10:27:38;;;;;;;19.10;12.77;;;;;;;0.93;55.99;94994.63;5043054;28;20597;-61
2022/03/07 10:30:30;;;;;;;13.70;11.53;;;;;;;1.07;56.94;94981.84;5045271;28;20209;-68
2022/03/07 10:33:16;;;;;;;19.07;12.60;;;;;;;1.24;55.80;94983.66;5046647;28;20240;-63
2022/03/07 10:36:02;;;;;;;20.93;13.17;;;;;;;1.62;55.14;94991.81;5043766;28;20292;-68
2022/03/07 10:38:56;;;;;;;16.73;12.00;;;;;;;1.43;54.28;94993.13;5042836;28;20205;-67
2022/03/07 10:41:44;;;;;;;17.23;12.87;;;;;;;1.58;54.19;94986.47;5044912;28;20228;-68
2022/03/07 10:44:38;;;;;;;15.83;12.03;;;;;;;1.27;54.81;94981.34;5035731;28;20245;-68
2022/03/07 10:47:29;;;;;;;16.53;11.97;;;;;;;1.00;54.66;94978.47;5037613;28;20210;-63
2022/03/07 10:50:14;;;;;;;16.13;11.57;;;;;;;1.14;55.15;94991.78;5033330;28;20269;-63
2022/03/07 10:53:06;;;;;;;15.17;12.50;;;;;;;0.98;55.30;94989.63;5032297;28;20634;-69
2022/03/07 10:55:57;;;;;;;21.90;13.47;;;;;;;1.36;55.13;94989.75;5045595;28;20218;-63
2022/03/07 10:58:54;;;;;;;17.63;12.70;;;;;;;1.22;54.83;94979.84;5046827;28;20195;-62
2022/03/07 11:01:41;;;;;;;17.27;12.63;;;;;;;1.80;54.37;94977.03;5023254;28;20245;-63
2022/03/07 11:04:28;;;;;;;18.53;12.90;;;;;;;1.80;53.67;94985.13;5038592;28;20276;-63
2022/03/07 11:07:15;;;;;;;18.37;12.93;;;;;;;1.70;54.21;94972.53;5051454;28;20512;-63
2022/03/07 11:10:01;;;;;;;19.17;12.67;;;;;;;1.44;53.96;94975.06;5049699;28;20277;-63
2022/03/07 11:12:48;;;;;;;14.63;11.73;;;;;;;1.54;53.53;94987.66;5039458;28;20592;-63
2022/03/07 11:15:34;;;;;;;15.77;11.87;;;;;;;1.50;53.66;94982.31;5047737;28;20272;-61
2022/03/07 11:18:21;;;;;;;15.87;12.47;;;;;;;2.24;62.22;94985.06;5040990;28;20199;-69
2022/03/07 11:21:08;;;;;;;17.17;12.80;;;;;;;2.41;53.03;94976.03;5047184;28;20199;-68
2022/03/07 11:23:56;;;;;;;19.97;12.07;;;;;;;2.64;50.80;94980.00;5041334;28;20225;-63
2022/03/07 11:26:43;;;;;;;17.57;12.83;;;;;;;2.77;51.34;94989.84;5035101;28;20252;-63
2022/03/07 11:29:40;;;;;;;18.57;12.47;;;;;;;2.84;50.16;94981.66;5034092;28;20204;-63
2022/03/07 11:32:38;;;;;;;17.10;13.17;;;;;;;2.57;50.51;94969.28;5042349;28;20205;-67
2022/03/07 11:35:33;;;;;;;15.20;12.37;;;;;;;2.54;51.00;94967.41;5040578;28;20257;-61
2022/03/07 11:38:28;;;;;;;16.47;12.87;;;;;;;2.34;50.44;94962.63;5040291;28;20272;-67
2022/03/07 11:41:14;;;;;;;19.47;13.50;;;;;;;2.47;50.48;94974.44;5041170;28;20192;-67
2022/03/07 11:44:07;;;;;;;18.97;12.63;;;;;;;1.86;50.68;94963.91;5030620;28;20229;-61
2022/03/07 11:46:53;;;;;;;15.47;12.33;;;;;;;1.78;51.32;94967.84;5034058;28;20226;-68
2022/03/07 11:49:40;;;;;;;14.43;11.77;;;;;;;1.82;51.18;94963.97;5038394;28;20199;-68
2022/03/07 11:52:26;;;;;;;16.20;12.83;;;;;;;2.17;50.81;94962.84;5049578;28;20277;-63
2022/03/07 11:55:16;;;;;;;15.87;12.17;;;;;;;1.84;50.31;94950.88;5040762;28;20834;-63
2022/03/07 11:58:08;;;;;;;15.57;12.07;;;;;;;1.86;49.62;94951.22;5042800;28;20577;-63
2022/03/07 12:01:24;;;;;;;17.30;13.13;;;;;;;1.75;50.44;94949.81;5043470;28;20198;-63
2022/03/07 12:04:15;;;;;;;17.87;12.60;;;;;;;2.21;50.45;94952.78;5037772;28;20767;-61
2022/03/07 12:07:01;;;;;;;16.77;12.37;;;;;;;2.02;50.72;94948.00;5027718;28;20204;-62
2022/03/07 12:09:47;;;;;;;16.30;12.77;;;;;;;2.04;50.90;94946.41;5064187;28;20245;-63
2022/03/07 12:12:33;;;;;;;17.93;12.73;;;;;;;2.12;50.93;94955.94;5044780;28;20279;-61
2022/03/07 12:15:19;;;;;;;17.00;12.03;;;;;;;1.80;51.30;94942.03;5044431;28;20230;-61
2022/03/07 12:18:07;;;;;;;16.23;12.87;;;;;;;1.85;51.42;94946.25;5032839;28;20343;-61
2022/03/07 12:20:55;;;;;;;18.90;12.83;;;;;;;2.19;50.78;94955.88;5027585;28;20344;-63
2022/03/07 12:23:41;;;;;;;17.87;12.60;;;;;;;1.98;50.42;94934.56;5032646;28;20313;-67
2022/03/07 12:26:27;;;;;;;17.43;12.80;;;;;;;2.06;51.00;94937.94;5042336;28;20276;-67
2022/03/07 12:29:14;;;;;;;17.63;13.83;;;;;;;1.93;51.31;94942.31;5034944;28;20851;-69
2022/03/07 12:32:03;;;;;;;16.73;14.47;;;;;;;2.19;50.66;94949.72;5027414;28;20202;-67
2022/03/07 12:34:49;;;;;;;16.10;13.80;;;;;;;2.22;50.35;94957.75;5042912;28;20250;-69
2022/03/07 12:37:37;;;;;;;15.57;12.43;;;;;;;1.93;50.71;94937.69;5020308;28;20290;-69
2022/03/07 12:40:24;;;;;;;16.70;13.90;;;;;;;1.70;51.25;94936.75;5030581;28;20531;-68
2022/03/07 12:43:10;;;;;;;16.80;13.07;;;;;;;1.60;51.93;94924.16;5033693;28;20206;-69
2022/03/07 12:45:56;;;;;;;16.57;13.10;;;;;;;1.61;51.77;94931.88;5054817;28;20206;-69
2022/03/07 12:48:44;;;;;;;16.70;13.00;;;;;;;1.78;51.64;94930.91;5042711;28;20222;-60
2022/03/07 12:51:31;;;;;;;14.93;12.40;;;;;;;1.85;50.87;94916.63;5048155;28;20293;-63